Time;durP1;ratioP1;P1;durP2;ratioP2;P2;SDS_P1;SDS_P2;PMS_P1;PMS_P2;Temp;Humidity;BMP_temperature;BMP_pressure;BME280_temperature;BME280_humidity;BME280_pressure;Samples;Min_cycle;Max_cycle;Signal;HPM_P1;HPM_P2
2022/05/31 00:00:42;;;;;;;12.50;4.63;;;10.50;78.70;;;;;;4940470;29;20425;-80
2022/05/31 00:03:12;;;;;;;15.50;4.60;;;10.50;78.80;;;;;;4919250;29;20052;-80
2022/05/31 00:05:39;;;;;;;10.85;4.13;;;10.40;78.80;;;;;;4915943;29;20431;-80
2022/05/31 00:08:07;;;;;;;13.00;4.63;;;10.40;78.80;;;;;;4933498;29;20048;-80
2022/05/31 00:10:35;;;;;;;10.60;4.82;;;10.30;78.80;;;;;;4928110;29;20493;-80
2022/05/31 00:13:03;;;;;;;12.63;5.07;;;10.30;78.80;;;;;;4944826;29;20062;-80
2022/05/31 00:15:32;;;;;;;12.55;5.00;;;10.30;78.90;;;;;;4924121;29;20058;-80
2022/05/31 00:17:59;;;;;;;11.55;4.88;;;10.30;78.90;;;;;;4923911;29;20650;-80
2022/05/31 00:20:27;;;;;;;11.18;4.38;;;10.30;78.90;;;;;;4927863;29;20047;-80
2022/05/31 00:22:55;;;;;;;7.13;3.45;;;10.30;78.90;;;;;;4920974;29;20059;-80
2022/05/31 00:25:23;;;;;;;9.18;3.70;;;10.30;78.80;;;;;;4937901;29;20046;-80
2022/05/31 00:27:51;;;;;;;10.90;4.07;;;10.30;78.70;;;;;;4932516;29;20063;-80
2022/05/31 00:30:18;;;;;;;10.75;4.20;;;10.30;78.70;;;;;;4938776;29;20055;-79
2022/05/31 00:32:49;;;;;;;8.73;3.95;;;10.30;78.70;;;;;;4923632;29;20398;-80
2022/05/31 00:35:45;;;;;;;7.78;3.78;;;10.30;78.60;;;;;;4905277;29;20052;-80
2022/05/31 00:38:13;;;;;;;9.85;4.22;;;10.30;78.80;;;;;;4925892;29;20063;-79
2022/05/31 00:40:41;;;;;;;10.88;4.85;;;10.30;78.70;;;;;;4926036;29;20059;-80
2022/05/31 00:43:12;;;;;;;10.88;4.60;;;10.30;78.80;;;;;;4921777;29;20044;-80
2022/05/31 00:45:57;;;;;;;15.80;4.90;;;10.30;78.90;;;;;;4933286;29;20043;-79
2022/05/31 00:48:33;;;;;;;12.85;5.13;;;10.30;79.10;;;;;;4941008;29;20051;-79
2022/05/31 00:51:05;;;;;;;9.68;4.28;;;10.30;79.20;;;;;;4939142;29;20577;-79
2022/05/31 00:53:44;;;;;;;11.27;4.95;;;10.30;79.30;;;;;;4911300;29;20051;-79
2022/05/31 00:56:21;;;;;;;10.30;4.65;;;10.30;79.50;;;;;;4946592;29;20098;-80
2022/05/31 00:59:17;;;;;;;8.98;4.82;;;10.30;79.50;;;;;;4922086;29;20619;-79
2022/05/31 01:01:47;;;;;;;11.82;5.72;;;10.20;79.70;;;;;;4907537;29;20048;-80
2022/05/31 01:04:15;;;;;;;10.98;5.13;;;10.20;79.70;;;;;;4934894;29;20055;-79
2022/05/31 01:06:42;;;;;;;13.00;6.43;;;10.20;79.70;;;;;;4908401;29;20052;-80
2022/05/31 01:09:10;;;;;;;11.63;6.25;;;10.20;79.80;;;;;;4920953;29;20048;-81
2022/05/31 01:11:40;;;;;;;11.15;6.65;;;10.20;79.90;;;;;;4928201;29;20053;-81
2022/05/31 01:14:27;;;;;;;14.63;7.05;;;10.20;80.30;;;;;;4926064;29;20051;-79
2022/05/31 01:16:59;;;;;;;10.85;7.40;;;10.20;80.70;;;;;;4932310;29;20048;-81
2022/05/31 01:20:00;;;;;;;12.02;7.60;;;10.10;81.10;;;;;;4894419;29;20117;-79
2022/05/31 01:22:52;;;;;;;13.18;7.32;;;10.10;81.40;;;;;;4899218;29;20492;-79
2022/05/31 01:25:23;;;;;;;11.13;7.40;;;10.10;81.40;;;;;;4899861;29;20160;-79
2022/05/31 01:28:08;;;;;;;8.98;7.13;;;10.00;81.40;;;;;;4915486;29;20044;-79
2022/05/31 01:30:41;;;;;;;12.65;7.90;;;10.00;81.50;;;;;;4915242;29;20476;-80
2022/05/31 01:33:49;;;;;;;11.70;8.07;;;10.00;81.60;;;;;;4898600;29;20056;-79
2022/05/31 01:36:35;;;;;;;12.18;8.27;;;10.00;81.70;;;;;;4910413;29;20053;-79
2022/05/31 01:39:11;;;;;;;16.15;10.30;;;10.00;81.70;;;;;;4905939;29;20414;-80
2022/05/31 01:41:52;;;;;;;14.85;9.93;;;10.00;81.70;;;;;;4915661;29;20095;-80
2022/05/31 01:44:22;;;;;;;14.27;10.48;;;10.10;82.00;;;;;;4915517;29;20060;-80
2022/05/31 01:46:52;;;;;;;16.25;11.25;;;10.00;82.10;;;;;;4915583;29;20083;-80
2022/05/31 01:49:22;;;;;;;16.30;12.00;;;10.00;82.20;;;;;;4915982;29;20052;-80
2022/05/31 01:51:51;;;;;;;14.60;11.90;;;10.00;82.40;;;;;;4886622;29;20060;-80
2022/05/31 01:54:19;;;;;;;13.40;10.90;;;10.10;82.50;;;;;;4923422;29;20044;-78
2022/05/31 01:56:52;;;;;;;19.02;11.27;;;10.00;82.60;;;;;;4916809;29;20063;-79
2022/05/31 01:59:20;;;;;;;18.55;11.55;;;10.00;82.70;;;;;;4915981;29;20040;-79
2022/05/31 02:01:48;;;;;;;13.38;10.27;;;10.10;82.80;;;;;;4911293;29;20041;-79
2022/05/31 02:04:17;;;;;;;16.25;9.93;;;10.00;82.90;;;;;;4900581;29;20681;-79
2022/05/31 02:06:45;;;;;;;16.52;9.98;;;10.00;83.20;;;;;;4914475;29;20410;-79
2022/05/31 02:09:14;;;;;;;12.80;9.27;;;10.00;83.50;;;;;;4903658;29;20056;-80
2022/05/31 02:11:44;;;;;;;13.40;9.52;;;10.00;83.50;;;;;;4934736;29;20044;-80
2022/05/31 02:14:21;;;;;;;16.00;10.63;;;10.00;83.50;;;;;;4907827;29;20052;-80
2022/05/31 02:16:48;;;;;;;17.35;9.02;;;9.90;83.50;;;;;;4930185;29;20498;-79
2022/05/31 02:19:37;;;;;;;14.65;8.45;;;9.90;83.50;;;;;;4921290;29;20059;-79
2022/05/31 02:22:30;;;;;;;10.73;7.65;;;9.90;83.50;;;;;;4921105;29;20067;-79
2022/05/31 02:24:58;;;;;;;10.93;6.43;;;9.80;83.60;;;;;;4915516;29;20044;-79
2022/05/31 02:27:25;;;;;;;9.25;6.35;;;9.90;83.60;;;;;;4905812;29;20052;-79
2022/05/31 02:29:53;;;;;;;8.40;5.65;;;9.80;83.50;;;;;;4930331;29;20036;-79
2022/05/31 02:32:21;;;;;;;9.65;5.35;;;9.90;83.50;;;;;;4907413;29;20541;-79
2022/05/31 02:34:50;;;;;;;8.98;6.00;;;9.80;83.30;;;;;;4931181;29;20047;-80
2022/05/31 02:37:22;;;;;;;8.32;5.60;;;9.80;83.20;;;;;;4903093;29;20043;-79
2022/05/31 02:39:49;;;;;;;7.90;5.22;;;9.80;83.20;;;;;;4927778;29;20048;-79
2022/05/31 02:42:18;;;;;;;8.15;4.47;;;9.80;83.20;;;;;;4926964;29;20047;-80
2022/05/31 02:44:46;;;;;;;8.75;4.00;;;9.80;83.10;;;;;;4912439;29;20056;-79
2022/05/31 02:47:14;;;;;;;7.10;4.63;;;9.80;83.10;;;;;;4926313;29;20055;-84
2022/05/31 02:49:45;;;;;;;6.63;4.40;;;9.70;83.10;;;;;;4944749;29;20063;-79
2022/05/31 02:52:14;;;;;;;8.70;3.97;;;9.70;83.10;;;;;;4923888;29;20044;-80
2022/05/31 02:54:42;;;;;;;6.97;4.13;;;9.70;83.10;;;;;;4929456;29;20178;-81
2022/05/31 02:57:19;;;;;;;8.57;3.83;;;9.70;83.10;;;;;;4934558;29;20044;-81
2022/05/31 03:00:06;;;;;;;9.40;3.88;;;9.70;83.20;;;;;;4926585;29;20048;-82
2022/05/31 03:02:40;;;;;;;7.05;3.65;;;9.60;83.30;;;;;;4940809;29;20043;-83
2022/05/31 03:05:32;;;;;;;6.90;3.53;;;9.60;83.30;;;;;;4919874;29;20056;-85
2022/05/31 03:08:19;;;;;;;6.18;3.35;;;9.50;83.30;;;;;;4943518;29;20047;-85
2022/05/31 03:11:00;;;;;;;4.80;3.50;;;9.50;83.40;;;;;;4929528;29;20047;-86
2022/05/31 03:13:29;;;;;;;9.55;3.38;;;9.40;83.50;;;;;;4907547;29;20055;-85
2022/05/31 03:16:00;;;;;;;4.38;2.70;;;9.40;83.70;;;;;;4930119;29;20063;-85
2022/05/31 03:18:34;;;;;;;5.65;2.78;;;9.30;83.80;;;;;;4911700;29;20378;-84
2022/05/31 03:21:26;;;;;;;5.22;3.03;;;9.30;83.90;;;;;;4931725;29;20413;-85
2022/05/31 03:24:00;;;;;;;7.32;2.60;;;9.30;84.00;;;;;;4927797;29;20048;-84
2022/05/31 03:26:31;;;;;;;3.75;2.78;;;9.30;84.10;;;;;;4931242;29;20071;-86
2022/05/31 03:28:59;;;;;;;4.78;2.35;;;9.30;84.40;;;;;;4937221;29;20051;-84
2022/05/31 03:31:26;;;;;;;4.90;2.33;;;9.20;84.50;;;;;;4941981;29;20193;-83
2022/05/31 03:33:54;;;;;;;4.05;2.75;;;9.20;84.60;;;;;;4935842;29;20059;-82
2022/05/31 03:36:22;;;;;;;7.82;3.15;;;9.10;84.70;;;;;;4946083;29;20040;-82
2022/05/31 03:38:59;;;;;;;7.78;3.10;;;9.10;84.80;;;;;;4942579;29;20048;-82
2022/05/31 03:41:27;;;;;;;7.07;3.20;;;9.10;84.80;;;;;;4944507;29;20051;-83
2022/05/31 03:43:56;;;;;;;8.25;3.28;;;9.10;84.90;;;;;;4932465;29;20070;-84
2022/05/31 03:46:25;;;;;;;3.80;2.60;;;9.00;85.00;;;;;;4929821;29;20491;-82
2022/05/31 03:49:03;;;;;;;6.78;2.80;;;9.00;85.10;;;;;;4943690;29;20062;-83
2022/05/31 03:51:52;;;;;;;7.20;2.72;;;9.00;85.20;;;;;;4916013;29;20425;-83
2022/05/31 03:54:28;;;;;;;4.57;2.58;;;9.00;85.30;;;;;;4910367;29;20063;-82
2022/05/31 03:57:20;;;;;;;4.85;3.22;;;8.90;85.30;;;;;;4936291;29;20055;-83
2022/05/31 04:00:23;;;;;;;4.53;2.45;;;8.80;85.40;;;;;;4878408;29;20049;-82
2022/05/31 04:03:14;;;;;;;4.47;2.28;;;8.80;85.50;;;;;;4864764;29;20053;-82
2022/05/31 04:05:42;;;;;;;8.57;2.83;;;8.80;85.60;;;;;;4847198;29;20057;-82
2022/05/31 04:08:12;;;;;;;6.65;2.50;;;8.80;85.80;;;;;;4870841;29;20057;-82
2022/05/31 04:10:42;;;;;;;7.13;2.97;;;8.80;85.80;;;;;;4871902;29;20053;-82
2022/05/31 04:13:10;;;;;;;4.95;2.25;;;8.80;85.90;;;;;;4872899;29;20277;-82
2022/05/31 04:16:15;;;;;;;3.60;2.05;;;8.80;86.00;;;;;;4869784;29;20065;-82
2022/05/31 04:18:56;;;;;;;4.38;2.28;;;8.80;86.00;;;;;;4879516;29;20048;-80
2022/05/31 04:21:24;;;;;;;2.83;2.20;;;8.70;86.00;;;;;;4863678;29;20060;-81
2022/05/31 04:23:58;;;;;;;2.65;1.95;;;8.70;86.00;;;;;;4856098;29;20050;-83
2022/05/31 04:26:36;;;;;;;5.70;2.50;;;8.70;86.10;;;;;;4852067;29;20057;-81
2022/05/31 04:29:22;;;;;;;;;;;8.80;86.10;;;;;;4845862;29;20064;-81
2022/05/31 04:32:08;;;;;;;4.97;2.55;;;8.70;86.10;;;;;;4863262;29;20256;-80
2022/05/31 04:34:43;;;;;;;3.67;2.00;;;8.70;86.10;;;;;;4903080;29;20071;-80
2022/05/31 04:37:12;;;;;;;4.88;2.42;;;8.80;86.00;;;;;;4919406;29;20054;-81
2022/05/31 04:40:00;;;;;;;5.40;2.10;;;8.70;86.10;;;;;;4915417;29;20044;-80
2022/05/31 04:42:43;;;;;;;5.25;2.33;;;8.80;86.10;;;;;;4932603;29;20062;-81
2022/05/31 04:45:37;;;;;;;7.70;2.80;;;8.80;86.10;;;;;;4924573;29;20047;-82
2022/05/31 04:48:38;;;;;;;4.43;2.40;;;8.80;86.10;;;;;;4942761;29;20054;-82
2022/05/31 04:51:06;;;;;;;5.95;3.28;;;8.80;86.20;;;;;;4917828;29;20063;-81
2022/05/31 04:53:42;;;;;;;6.57;2.80;;;8.80;86.30;;;;;;4921052;29;20047;-80
2022/05/31 04:56:20;;;;;;;4.47;2.67;;;8.90;86.30;;;;;;4936641;29;20043;-81
2022/05/31 04:58:52;;;;;;;12.02;2.50;;;8.90;86.40;;;;;;4909884;29;20070;-81
2022/05/31 05:01:21;;;;;;;7.13;3.20;;;8.90;86.40;;;;;;4913981;29;20048;-81
2022/05/31 05:03:54;;;;;;;8.75;3.10;;;8.90;86.40;;;;;;4935495;29;20044;-81
2022/05/31 05:06:32;;;;;;;7.30;3.08;;;9.00;86.40;;;;;;4908016;29;20036;-81
2022/05/31 05:09:00;;;;;;;5.43;3.08;;;9.00;86.40;;;;;;4932179;29;20055;-81
2022/05/31 05:11:32;;;;;;;6.13;3.75;;;9.10;86.30;;;;;;4931132;29;20039;-81
2022/05/31 05:14:11;;;;;;;7.20;3.13;;;9.10;86.30;;;;;;4929206;29;20054;-81
2022/05/31 05:16:57;;;;;;;6.20;3.70;;;9.20;86.30;;;;;;4906833;29;20040;-81
2022/05/31 05:19:25;;;;;;;5.97;3.13;;;9.20;86.30;;;;;;4935549;29;20039;-81
2022/05/31 05:21:59;;;;;;;6.68;3.30;;;9.30;86.30;;;;;;4936601;29;20067;-81
2022/05/31 05:24:27;;;;;;;5.63;3.13;;;9.30;86.30;;;;;;4920716;29;20454;-80
2022/05/31 05:27:13;;;;;;;7.97;3.40;;;9.30;86.30;;;;;;4937343;29;20482;-81
2022/05/31 05:32:51;;;;;;;7.13;3.17;;;9.30;86.20;;;;;;4919782;29;20406;-81
2022/05/31 05:35:29;;;;;;;3.67;3.20;;;9.30;86.20;;;;;;4927767;29;20063;-82
2022/05/31 05:38:06;;;;;;;7.00;3.58;;;9.30;86.20;;;;;;4916243;29;20044;-81
2022/05/31 05:40:47;;;;;;;6.90;4.88;;;9.30;86.20;;;;;;4937058;29;20048;-82
2022/05/31 05:43:17;;;;;;;6.82;3.20;;;9.30;86.10;;;;;;4951258;29;20044;-82
2022/05/31 05:45:56;;;;;;;6.13;3.92;;;9.30;86.20;;;;;;4927756;29;20121;-82
2022/05/31 05:48:24;;;;;;;8.43;3.78;;;9.30;86.20;;;;;;4928583;29;20075;-82
2022/05/31 05:50:51;;;;;;;5.78;3.30;;;9.30;86.30;;;;;;4926449;29;20416;-82
2022/05/31 05:53:39;;;;;;;10.45;3.60;;;9.40;86.20;;;;;;4898263;29;20064;-82
2022/05/31 05:56:42;;;;;;;10.45;3.80;;;9.30;86.20;;;;;;4845699;29;20062;-82
2022/05/31 05:59:28;;;;;;;9.15;4.07;;;9.40;86.20;;;;;;4834855;29;20061;-81
2022/05/31 06:02:31;;;;;;;6.80;3.15;;;9.50;86.20;;;;;;4828536;29;20085;-82
2022/05/31 06:05:37;;;;;;;8.60;3.47;;;9.50;86.10;;;;;;4831445;29;20076;-82
2022/05/31 06:08:27;;;;;;;8.02;3.55;;;9.60;86.00;;;;;;4811758;29;20067;-82
2022/05/31 06:11:11;;;;;;;7.70;3.45;;;9.60;85.90;;;;;;4828066;29;20123;-82
2022/05/31 06:13:51;;;;;;;8.40;3.45;;;9.60;85.90;;;;;;4806070;29;20059;-82
2022/05/31 06:16:21;;;;;;;6.57;3.58;;;9.60;85.80;;;;;;4824189;29;20062;-81
2022/05/31 06:18:57;;;;;;;8.02;3.42;;;9.70;85.80;;;;;;4825869;29;20054;-81
2022/05/31 06:21:25;;;;;;;7.50;2.75;;;9.70;85.80;;;;;;4804041;29;20058;-81
2022/05/31 06:24:01;;;;;;;6.05;3.50;;;9.80;85.80;;;;;;4816850;29;20065;-79
2022/05/31 06:26:32;;;;;;;9.48;3.60;;;9.80;85.60;;;;;;4807094;29;20421;-80
2022/05/31 06:29:05;;;;;;;6.90;2.75;;;9.80;85.50;;;;;;4823538;29;20046;-81
2022/05/31 06:31:32;;;;;;;6.47;3.17;;;9.80;85.50;;;;;;4845370;29;20073;-79
2022/05/31 06:34:04;;;;;;;5.28;2.80;;;9.80;85.30;;;;;;4867772;29;20072;-81
2022/05/31 06:37:06;;;;;;;6.20;3.08;;;9.70;85.30;;;;;;4878857;29;20053;-80
2022/05/31 06:39:35;;;;;;;5.45;3.05;;;9.70;85.30;;;;;;4932456;29;20047;-80
2022/05/31 06:42:12;;;;;;;8.50;3.60;;;9.80;85.40;;;;;;4923506;29;20382;-79
2022/05/31 06:45:03;;;;;;;8.80;3.53;;;9.80;85.40;;;;;;4910471;29;20067;-79
2022/05/31 06:47:51;;;;;;;6.28;2.95;;;9.90;85.40;;;;;;4902522;29;20056;-79
2022/05/31 06:50:45;;;;;;;5.85;2.75;;;10.10;85.30;;;;;;4887921;29;20067;-80
2022/05/31 06:59:25;;;;;;;6.88;2.92;;;10.70;84.80;;;;;;4873405;29;20421;-79
2022/05/31 07:01:53;;;;;;;2.80;2.15;;;10.90;84.40;;;;;;4891178;29;20053;-79
2022/05/31 07:04:21;;;;;;;3.72;2.20;;;11.10;84.00;;;;;;4896497;29;20059;-81
2022/05/31 07:06:49;;;;;;;3.75;2.15;;;11.30;83.20;;;;;;4889093;29;20049;-81
2022/05/31 07:09:36;;;;;;;2.90;2.08;;;11.30;82.80;;;;;;4896241;29;20067;-80
2022/05/31 07:12:17;;;;;;;6.13;2.20;;;11.40;82.40;;;;;;4903010;29;20494;-80
2022/05/31 07:15:04;;;;;;;3.80;1.98;;;11.50;82.20;;;;;;4897151;29;20061;-80
2022/05/31 07:17:50;;;;;;;3.53;2.00;;;11.60;82.10;;;;;;4897297;29;20049;-79
2022/05/31 07:20:19;;;;;;;7.47;2.10;;;11.70;81.40;;;;;;4895101;29;20517;-81
2022/05/31 07:22:47;;;;;;;3.88;2.13;;;11.70;81.10;;;;;;4893985;29;20053;-79
2022/05/31 07:25:41;;;;;;;6.45;2.13;;;11.80;81.00;;;;;;4907616;29;20068;-78
2022/05/31 07:28:09;;;;;;;5.10;2.67;;;11.80;80.70;;;;;;4880831;29;20514;-79
2022/05/31 07:30:39;;;;;;;5.50;2.80;;;11.70;80.70;;;;;;4913333;29;20057;-79
2022/05/31 07:33:15;;;;;;;8.73;4.43;;;11.70;80.60;;;;;;4929795;29;20706;-79
2022/05/31 07:36:07;;;;;;;10.15;4.47;;;11.60;80.30;;;;;;4907201;29;20402;-80
2022/05/31 07:38:49;;;;;;;;;;;11.50;80.50;;;;;;4903148;29;20044;-81
2022/05/31 07:41:17;;;;;;;6.93;3.00;;;11.50;80.70;;;;;;4899837;29;19938;-82
2022/05/31 07:43:47;;;;;;;6.15;3.42;;;11.50;80.70;;;;;;4896741;29;20053;-80
2022/05/31 07:46:15;;;;;;;8.32;3.42;;;11.50;80.80;;;;;;4909279;29;20068;-80
2022/05/31 07:48:43;;;;;;;5.93;3.15;;;11.50;80.90;;;;;;4899887;29;20049;-81
2022/05/31 07:51:32;;;;;;;2.80;2.42;;;11.50;81.00;;;;;;4907662;29;20239;-81
2022/05/31 07:54:19;;;;;;;4.47;2.92;;;11.50;80.70;;;;;;4919875;29;20053;-80
2022/05/31 08:00:22;;;;;;;6.00;3.60;;;11.30;80.90;;;;;;4884693;29;20052;-80
2022/05/31 08:02:49;;;;;;;8.93;3.47;;;11.30;81.20;;;;;;4883332;29;20060;-80
2022/05/31 08:05:17;;;;;;;10.18;3.65;;;11.30;81.20;;;;;;4860714;29;20056;-79
2022/05/31 08:07:45;;;;;;;8.63;3.90;;;11.30;81.20;;;;;;4874068;29;20049;-80
2022/05/31 08:10:13;;;;;;;5.70;3.50;;;11.30;81.20;;;;;;4885600;29;20053;-80
2022/05/31 08:12:41;;;;;;;3.55;2.90;;;11.30;81.30;;;;;;4878876;29;20049;-81
2022/05/31 08:15:10;;;;;;;3.20;2.55;;;11.30;81.10;;;;;;4879072;29;20057;-80
2022/05/31 08:17:38;;;;;;;6.07;2.80;;;11.40;81.10;;;;;;4878799;29;20056;-81
2022/05/31 08:20:07;;;;;;;7.13;3.22;;;11.60;81.10;;;;;;4859832;29;20484;-80
2022/05/31 08:22:35;;;;;;;5.30;2.58;;;11.80;80.60;;;;;;4881621;29;20049;-79
2022/05/31 08:25:03;;;;;;;2.72;2.20;;;12.00;79.50;;;;;;4897234;29;20052;-80
2022/05/31 08:27:34;;;;;;;5.68;2.75;;;12.20;78.60;;;;;;4897732;29;20061;-79
2022/05/31 08:30:04;;;;;;;8.45;2.45;;;12.30;76.90;;;;;;4898235;29;20064;-80
2022/05/31 08:32:33;;;;;;;3.28;2.05;;;12.30;77.40;;;;;;4897287;29;20067;-82
2022/05/31 08:35:02;;;;;;;2.20;2.00;;;12.40;77.30;;;;;;4911727;29;20067;-79
2022/05/31 08:37:35;;;;;;;4.88;1.85;;;12.80;76.70;;;;;;4923551;29;20051;-79
2022/05/31 08:40:04;;;;;;;5.88;1.95;;;13.00;76.20;;;;;;4911900;29;20109;-79
2022/05/31 08:42:57;;;;;;;5.85;1.83;;;13.20;75.90;;;;;;4932605;29;20055;-79
2022/05/31 08:45:37;;;;;;;5.43;2.10;;;13.30;74.60;;;;;;4937239;29;20051;-79
2022/05/31 08:48:25;;;;;;;5.28;2.00;;;13.30;73.80;;;;;;4937193;29;20056;-79
2022/05/31 08:57:01;;;;;;;3.70;2.00;;;13.30;72.30;;;;;;4927476;29;20063;-79
2022/05/31 09:00:05;;;;;;;3.78;1.90;;;13.30;72.10;;;;;;4934921;29;20036;-79
2022/05/31 09:02:43;;;;;;;4.90;1.75;;;13.20;72.30;;;;;;4933582;29;20040;-80
2022/05/31 09:05:34;;;;;;;5.10;1.40;;;13.10;72.80;;;;;;4933945;29;20056;-80
2022/05/31 09:08:30;;;;;;;4.28;1.85;;;13.10;73.00;;;;;;4936588;29;20405;-80
2022/05/31 09:11:11;;;;;;;3.15;1.67;;;13.00;72.70;;;;;;4936797;29;20062;-79
2022/05/31 09:13:53;;;;;;;4.07;1.88;;;12.90;72.60;;;;;;4936626;29;20063;-79
2022/05/31 09:16:46;;;;;;;5.07;1.70;;;13.00;72.40;;;;;;4926909;29;20056;-80
2022/05/31 09:19:21;;;;;;;3.15;1.65;;;13.20;72.30;;;;;;4926568;29;20054;-79
2022/05/31 09:21:50;;;;;;;5.50;1.25;;;13.40;72.10;;;;;;4919179;29;20068;-81
2022/05/31 09:24:21;;;;;;;1.52;1.05;;;13.60;70.40;;;;;;4936895;29;20048;-80
2022/05/31 09:27:07;;;;;;;3.35;1.55;;;13.60;69.50;;;;;;4936244;29;20078;-80
2022/05/31 09:29:58;;;;;;;3.30;1.40;;;13.40;69.40;;;;;;4936341;29;20048;-80
2022/05/31 09:32:44;;;;;;;2.92;1.55;;;13.30;70.00;;;;;;4919346;29;20048;-80
2022/05/31 09:35:36;;;;;;;3.88;1.50;;;13.20;70.10;;;;;;4909230;29;20055;-79
2022/05/31 09:38:55;;;;;;;3.17;1.70;;;13.10;70.30;;;;;;4930208;29;20441;-80
2022/05/31 09:41:26;;;;;;;1.27;1.17;;;13.10;70.80;;;;;;4905354;29;20063;-79
2022/05/31 09:44:10;;;;;;;4.05;1.73;;;13.30;70.80;;;;;;4939393;29;20059;-81
2022/05/31 09:46:53;;;;;;;1.52;0.70;;;13.50;70.40;;;;;;4931078;29;20568;-80
2022/05/31 09:49:40;;;;;;;4.68;0.80;;;13.50;68.10;;;;;;4937821;29;20042;-79
2022/05/31 09:52:18;;;;;;;1.15;0.65;;;12.80;68.50;;;;;;4904445;29;20059;-75
2022/05/31 09:58:23;;;;;;;3.38;0.95;;;11.90;71.30;;;;;;4927951;29;20039;-85
2022/05/31 10:01:15;;;;;;;4.72;1.40;;;11.90;72.40;;;;;;4961020;29;20058;-87
2022/05/31 10:03:52;;;;;;;1.63;1.13;;;12.10;73.40;;;;;;4960726;29;20060;-87
2022/05/31 10:06:27;;;;;;;2.90;1.27;;;12.30;73.90;;;;;;4927329;29;20043;-87
2022/05/31 10:08:56;;;;;;;4.03;1.20;;;12.50;74.10;;;;;;4924880;29;20059;-85
2022/05/31 10:11:43;;;;;;;2.22;1.40;;;12.70;74.30;;;;;;4941283;29;20051;-85
2022/05/31 10:14:32;;;;;;;1.92;1.30;;;12.80;74.60;;;;;;4939732;29;20064;-87
2022/05/31 10:17:37;;;;;;;6.43;1.85;;;12.80;74.40;;;;;;4909940;29;20490;-76
2022/05/31 10:20:08;;;;;;;;;;;12.70;74.60;;;;;;4917147;29;20063;-80
2022/05/31 10:22:37;;;;;;;3.65;1.30;;;12.40;74.90;;;;;;4932425;29;19922;-84
2022/05/31 10:25:26;;;;;;;1.88;1.50;;;12.20;75.20;;;;;;4927259;29;20490;-85
2022/05/31 10:28:25;;;;;;;2.28;1.25;;;12.20;76.10;;;;;;4937042;29;20055;-86
2022/05/31 10:31:20;;;;;;;2.67;1.45;;;12.40;76.30;;;;;;4931626;29;20051;-87
2022/05/31 10:33:55;;;;;;;2.40;1.50;;;12.60;75.90;;;;;;4934202;29;20043;-78
2022/05/31 10:36:27;;;;;;;4.93;1.83;;;12.70;75.80;;;;;;4918568;29;20056;-78
2022/05/31 10:38:55;;;;;;;4.30;1.30;;;12.60;75.80;;;;;;4916740;29;20044;-79
2022/05/31 10:41:29;;;;;;;2.42;1.60;;;12.60;76.10;;;;;;4920609;29;20058;-79
2022/05/31 10:44:36;;;;;;;3.33;0.90;;;12.50;76.10;;;;;;4917526;29;20056;-79
2022/05/31 10:47:14;;;;;;;2.40;1.00;;;12.60;76.20;;;;;;4931090;29;20048;-79
2022/05/31 10:49:44;;;;;;;1.02;0.80;;;12.50;75.80;;;;;;4944021;29;20182;-79
2022/05/31 10:52:22;;;;;;;1.10;0.70;;;12.70;75.90;;;;;;4934998;29;20055;-80
2022/05/31 10:55:17;;;;;;;2.42;0.85;;;12.90;75.10;;;;;;4936708;29;20039;-79
2022/05/31 10:57:51;;;;;;;1.52;0.70;;;13.20;74.60;;;;;;4945875;29;20058;-79
2022/05/31 11:00:34;;;;;;;2.65;0.80;;;13.50;74.40;;;;;;4946494;29;20047;-80
2022/05/31 11:03:26;;;;;;;3.35;0.80;;;13.90;71.60;;;;;;4924747;29;20052;-81
2022/05/31 11:06:19;;;;;;;1.67;0.90;;;14.10;71.10;;;;;;4933053;29;20043;-80
2022/05/31 11:12:04;;;;;;;4.03;0.82;;;14.80;69.80;;;;;;4933551;29;20497;-80
2022/05/31 11:14:39;;;;;;;2.85;1.10;;;15.00;68.20;;;;;;4932956;29;20055;-81
2022/05/31 11:17:43;;;;;;;1.33;0.80;;;15.20;68.20;;;;;;4933801;29;20489;-81
2022/05/31 11:20:19;;;;;;;5.03;2.15;;;15.70;67.10;;;;;;4934224;29;20047;-82
2022/05/31 11:23:21;;;;;;;3.58;1.90;;;16.10;65.60;;;;;;4917547;29;20405;-81
2022/05/31 11:26:01;;;;;;;3.95;2.28;;;16.20;63.10;;;;;;4935322;29;20048;-81
2022/05/31 11:29:37;;;;;;;3.58;1.73;;;16.00;63.80;;;;;;4925069;29;20043;-81
2022/05/31 11:32:35;;;;;;;3.30;1.55;;;16.00;64.30;;;;;;4918884;29;20047;-81
2022/05/31 11:35:15;;;;;;;2.42;0.90;;;15.90;64.30;;;;;;4925261;29;20054;-84
2022/05/31 11:38:01;;;;;;;0.93;0.63;;;15.90;64.00;;;;;;4934173;29;20051;-83
2022/05/31 11:40:34;;;;;;;1.23;0.60;;;15.90;62.60;;;;;;4926497;29;20503;-84
2022/05/31 11:43:14;;;;;;;1.85;1.10;;;16.00;62.30;;;;;;4931680;29;20062;-75
2022/05/31 11:46:14;;;;;;;2.15;1.10;;;16.10;61.60;;;;;;4925044;29;20056;-86
2022/05/31 11:48:53;;;;;;;1.55;1.45;;;16.30;61.80;;;;;;4924669;29;20062;-81
2022/05/31 11:51:33;;;;;;;2.38;1.80;;;16.80;60.40;;;;;;4918516;29;20056;-84
2022/05/31 11:54:17;;;;;;;3.80;2.60;;;16.90;57.70;;;;;;4895241;29;20048;-75
2022/05/31 11:56:47;;;;;;;;;;;16.80;57.60;;;;;;4934340;29;20051;-78
2022/05/31 11:59:26;;;;;;;4.10;2.00;;;16.30;57.50;;;;;;4927993;29;19923;-77
2022/05/31 12:02:10;;;;;;;3.92;1.52;;;15.60;59.50;;;;;;4911092;29;20047;-81
2022/05/31 12:04:47;;;;;;;1.40;1.00;;;14.50;62.40;;;;;;4921651;29;20514;-78
2022/05/31 12:07:29;;;;;;;1.25;0.80;;;13.70;64.70;;;;;;4905228;29;20056;-81
2022/05/31 12:10:09;;;;;;;4.03;1.50;;;13.10;66.10;;;;;;4924355;29;20536;-81
2022/05/31 12:12:39;;;;;;;3.03;2.38;;;12.80;67.20;;;;;;4939676;29;20044;-81
2022/05/31 12:15:42;;;;;;;6.13;2.63;;;12.90;68.50;;;;;;4925529;29;20538;-82
2022/05/31 12:18:34;;;;;;;5.50;2.97;;;13.30;70.30;;;;;;4922469;29;20421;-82
2022/05/31 12:21:21;;;;;;;3.10;1.30;;;14.00;70.00;;;;;;4920041;29;20058;-82
2022/05/31 12:24:03;;;;;;;1.00;0.60;;;14.50;68.60;;;;;;4932238;29;20637;-83
2022/05/31 12:26:41;;;;;;;0.60;0.50;;;14.30;64.50;;;;;;4932185;29;20047;-81
2022/05/31 12:29:32;;;;;;;0.93;0.40;;;13.90;62.70;;;;;;4923679;29;20370;-80
2022/05/31 12:32:27;;;;;;;1.00;0.52;;;13.80;64.00;;;;;;4913119;29;20407;-81
2022/05/31 12:34:56;;;;;;;1.13;0.50;;;13.80;64.70;;;;;;4923941;29;20056;-81
2022/05/31 12:37:25;;;;;;;1.45;1.30;;;13.80;65.20;;;;;;4931678;29;20116;-83
2022/05/31 12:40:32;;;;;;;2.65;1.30;;;13.80;65.20;;;;;;4933865;29;20048;-81
2022/05/31 12:43:09;;;;;;;2.92;1.50;;;14.10;66.20;;;;;;4937435;29;20067;-82
2022/05/31 12:45:39;;;;;;;1.88;1.40;;;14.60;66.00;;;;;;4929215;29;20073;-82
2022/05/31 12:48:12;;;;;;;2.25;1.80;;;15.10;66.00;;;;;;4929839;29;20058;-81
2022/05/31 12:51:00;;;;;;;2.25;1.80;;;15.80;61.40;;;;;;4936824;29;20043;-82
2022/05/31 12:53:37;;;;;;;6.10;1.50;;;16.50;60.30;;;;;;4931163;29;20056;-82
2022/05/31 12:56:29;;;;;;;2.10;1.90;;;17.30;59.70;;;;;;4922964;29;20059;-82
2022/05/31 12:58:58;;;;;;;1.98;1.75;;;17.90;57.40;;;;;;4916381;29;20066;-81
2022/05/31 13:01:26;;;;;;;2.92;1.75;;;18.60;55.90;;;;;;4932069;29;20037;-80
2022/05/31 13:03:57;;;;;;;1.30;1.20;;;18.90;52.10;;;;;;4931264;29;20056;-77
2022/05/31 13:07:04;;;;;;;2.13;1.52;;;19.00;51.20;;;;;;4938967;29;20478;-80
2022/05/31 13:09:36;;;;;;;1.52;0.90;;;19.00;50.40;;;;;;4937413;29;20405;-81
2022/05/31 13:20:56;;;;;;;2.53;1.30;;;16.80;53.80;;;;;;4922759;29;20044;-81
2022/05/31 13:23:27;;;;;;;3.33;1.50;;;16.50;54.30;;;;;;4933013;29;20051;-80
2022/05/31 13:26:00;;;;;;;1.77;1.50;;;16.30;54.90;;;;;;4935405;29;20059;-81
2022/05/31 13:28:40;;;;;;;1.85;0.90;;;16.40;55.70;;;;;;4928455;29;20050;-81
2022/05/31 13:31:16;;;;;;;2.35;1.20;;;17.10;54.30;;;;;;4930486;29;20048;-80
2022/05/31 13:33:45;;;;;;;3.13;1.25;;;18.00;53.30;;;;;;4915164;29;20051;-80
2022/05/31 13:36:29;;;;;;;1.30;1.20;;;19.00;48.90;;;;;;4917642;29;20402;-80
2022/05/31 13:39:03;;;;;;;1.17;1.08;;;19.50;48.60;;;;;;4927917;29;20062;-80
2022/05/31 13:41:33;;;;;;;4.35;1.58;;;19.30;47.30;;;;;;4910602;29;20047;-80
2022/05/31 13:44:03;;;;;;;1.70;1.20;;;18.90;47.00;;;;;;4931659;29;20120;-79
2022/05/31 13:46:36;;;;;;;5.18;1.30;;;19.30;47.10;;;;;;4929593;29;20056;-79
2022/05/31 13:49:07;;;;;;;3.30;1.07;;;19.90;45.50;;;;;;4924289;29;20051;-80
2022/05/31 13:51:35;;;;;;;0.70;0.70;;;20.60;45.50;;;;;;4918776;29;20301;-80
2022/05/31 13:54:14;;;;;;;3.05;1.27;;;21.00;44.50;;;;;;4917956;29;20059;-79
2022/05/31 13:56:47;;;;;;;3.42;1.20;;;21.20;43.20;;;;;;4932480;29;20051;-79
2022/05/31 13:59:41;;;;;;;3.53;1.17;;;21.00;40.80;;;;;;4922434;29;20052;-79
2022/05/31 14:02:24;;;;;;;0.85;0.60;;;20.90;39.70;;;;;;4927443;29;20798;-79
2022/05/31 14:04:58;;;;;;;1.02;0.85;;;21.00;39.70;;;;;;4925075;29;20048;-79
2022/05/31 14:07:32;;;;;;;2.75;1.40;;;21.10;39.10;;;;;;4926295;29;20212;-79
2022/05/31 14:10:00;;;;;;;;;;;21.20;40.40;;;;;;4932803;29;20062;-78
2022/05/31 14:12:36;;;;;;;4.80;1.40;;;21.60;40.40;;;;;;4928471;29;19930;-78
2022/05/31 14:15:05;;;;;;;2.38;1.00;;;21.90;40.70;;;;;;4917203;29;20051;-78
2022/05/31 14:17:41;;;;;;;0.60;0.32;;;21.80;40.20;;;;;;4923884;29;20056;-78
2022/05/31 14:20:33;;;;;;;1.13;0.50;;;21.60;38.70;;;;;;4927145;29;20043;-78